Time;durP1;ratioP1;P1;durP2;ratioP2;P2;SDS_P1;SDS_P2;PMS_P1;PMS_P2;Temp;Humidity;BMP_temperature;BMP_pressure;BME280_temperature;BME280_humidity;BME280_pressure;Samples;Min_cycle;Max_cycle;Signal;HPM_P1;HPM_P2
2021/11/23 00:02:30;;;;;;;7.90;5.20;;;3.50;99.90;3.10;97284.00;;;;5041732;28;20516;-75
2021/11/23 00:04:59;;;;;;;5.87;4.73;;;3.50;99.90;3.00;97282.00;;;;5045489;28;21007;-75
2021/11/23 00:07:29;;;;;;;8.17;3.53;;;3.50;99.90;2.90;97289.00;;;;5048849;28;20819;-75
2021/11/23 00:09:58;;;;;;;5.30;3.97;;;3.50;99.90;3.00;97285.00;;;;5042575;28;20435;-75
2021/11/23 00:12:26;;;;;;;6.30;4.67;;;3.40;99.90;3.10;97295.00;;;;5047131;28;20494;-75
2021/11/23 00:14:55;;;;;;;6.93;4.97;;;3.40;99.90;3.10;97293.00;;;;5040965;28;20805;-75
2021/11/23 00:17:25;;;;;;;6.97;5.20;;;3.40;99.90;3.10;97291.00;;;;5037620;28;20466;-76
2021/11/23 00:19:54;;;;;;;4.60;3.97;;;3.40;99.90;3.00;97299.00;;;;5039353;28;20482;-75
2021/11/23 00:22:23;;;;;;;5.70;4.37;;;3.40;99.90;2.60;97306.00;;;;5040501;28;20500;-75
2021/11/23 00:24:53;;;;;;;5.90;4.43;;;3.30;99.90;2.70;97296.00;;;;5034358;28;20201;-76
2021/11/23 00:27:22;;;;;;;7.60;5.67;;;3.30;99.90;2.70;97296.00;;;;5046511;28;20467;-76
2021/11/23 00:29:50;;;;;;;8.20;6.67;;;3.30;99.90;2.70;97310.00;;;;5046402;28;20788;-75
2021/11/23 00:32:20;;;;;;;6.83;4.93;;;3.20;99.90;2.70;97315.00;;;;5046678;28;20934;-75
2021/11/23 00:34:48;;;;;;;8.10;5.27;;;3.20;99.90;2.60;97307.00;;;;5043754;28;20460;-75
2021/11/23 00:37:17;;;;;;;7.60;4.37;;;3.20;99.90;2.20;97307.00;;;;5046767;28;20861;-75
2021/11/23 00:39:46;;;;;;;7.57;4.53;;;3.10;99.90;2.20;97307.00;;;;5047400;28;20498;-75
2021/11/23 00:42:16;;;;;;;6.10;4.40;;;3.00;99.90;2.40;97313.00;;;;5034204;28;20509;-75
2021/11/23 00:44:45;;;;;;;6.17;4.30;;;3.00;99.90;2.50;97313.00;;;;5043597;28;20425;-75
2021/11/23 00:47:13;;;;;;;8.40;5.40;;;3.00;99.90;2.60;97310.00;;;;5042258;28;20446;-75
2021/11/23 00:49:43;;;;;;;9.73;5.07;;;3.00;99.90;2.50;97311.00;;;;5045774;28;20439;-75
2021/11/23 00:52:12;;;;;;;7.80;5.47;;;3.00;99.90;2.50;97325.00;;;;5040720;28;20805;-75
2021/11/23 00:54:41;;;;;;;6.07;3.63;;;3.00;99.90;2.50;97322.00;;;;5042651;28;20467;-77
2021/11/23 00:57:29;;;;;;;8.70;5.33;;;2.90;99.90;2.30;97318.00;;;;5031394;28;20754;-75
2021/11/23 00:59:58;;;;;;;6.10;4.77;;;2.90;99.90;2.20;97320.00;;;;5036010;28;20981;-75
2021/11/23 01:02:27;;;;;;;9.80;5.57;;;2.90;99.90;2.20;97316.00;;;;5041633;28;20520;-74
2021/11/23 01:04:56;;;;;;;6.83;4.37;;;2.80;99.90;2.20;97316.00;;;;5046890;28;20534;-75
2021/11/23 01:07:24;;;;;;;7.80;5.47;;;2.80;99.90;2.20;97327.00;;;;5046598;28;20459;-75
2021/11/23 01:09:53;;;;;;;7.67;5.70;;;2.70;99.90;2.20;97322.00;;;;5040071;28;20438;-76
2021/11/23 01:12:22;;;;;;;10.53;7.70;;;2.70;99.90;2.30;97323.00;;;;5040974;28;20491;-76
2021/11/23 01:14:52;;;;;;;12.17;7.40;;;2.70;99.90;2.20;97322.00;;;;5047464;28;20423;-75
2021/11/23 01:17:21;;;;;;;9.53;5.70;;;2.70;99.90;2.20;97328.00;;;;5037565;28;20932;-75
2021/11/23 01:19:50;;;;;;;9.70;5.97;;;2.70;99.90;2.20;97345.00;;;;5041044;28;21009;-75
2021/11/23 01:22:19;;;;;;;12.07;7.43;;;2.60;99.90;2.10;97325.00;;;;5044552;28;20459;-76
2021/11/23 01:24:48;;;;;;;10.90;6.53;;;2.70;99.90;2.10;97334.00;;;;5030696;28;20440;-75
2021/11/23 01:27:17;;;;;;;9.00;6.40;;;2.60;99.90;2.10;97321.00;;;;5036125;28;20481;-75
2021/11/23 01:29:45;;;;;;;11.27;7.53;;;2.60;99.90;2.10;97333.00;;;;5045281;28;20427;-75
2021/11/23 01:32:15;;;;;;;12.07;7.97;;;2.60;99.90;2.10;97336.00;;;;5044638;28;20463;-75
2021/11/23 01:34:44;;;;;;;10.97;5.87;;;2.60;99.90;2.00;97326.00;;;;5033131;28;20440;-75
2021/11/23 01:37:32;;;;;;;7.63;4.60;;;2.60;99.90;1.70;97334.00;;;;5034520;28;20500;-75
2021/11/23 01:40:00;;;;;;;7.17;4.70;;;2.50;99.90;1.60;97335.00;;;;5046204;28;21015;-75
2021/11/23 01:42:29;;;;;;;6.57;4.63;;;2.40;99.90;1.60;97330.00;;;;5042475;28;20448;-75
2021/11/23 01:44:58;;;;;;;11.27;5.17;;;2.30;99.90;1.70;97332.00;;;;5042080;28;20964;-75
2021/11/23 01:47:28;;;;;;;10.10;5.93;;;2.30;99.90;1.70;97325.00;;;;5036977;28;20793;-76
2021/11/23 01:50:16;;;;;;;5.97;4.60;;;2.30;99.90;1.50;97328.00;;;;5044348;28;20546;-75
2021/11/23 01:52:47;;;;;;;5.60;4.03;;;2.20;99.90;1.60;97339.00;;;;5031976;28;21032;-75
2021/11/23 01:55:16;;;;;;;5.27;3.90;;;2.20;99.90;1.70;97329.00;;;;5035355;28;20436;-75
2021/11/23 01:57:46;;;;;;;4.47;3.40;;;2.20;99.90;1.70;97331.00;;;;5031633;28;20714;-75
2021/11/23 02:00:16;;;;;;;5.93;3.63;;;2.10;99.90;1.60;97332.00;;;;5044745;28;20926;-75
2021/11/23 02:02:47;;;;;;;7.10;3.57;;;2.20;99.90;1.40;97334.00;;;;5041813;28;20965;-75
2021/11/23 02:05:16;;;;;;;4.50;2.97;;;2.10;99.90;1.30;97332.00;;;;5045627;28;20435;-75
2021/11/23 02:07:45;;;;;;;4.07;3.37;;;2.10;99.90;1.30;97330.00;;;;5037243;28;20530;-74
2021/11/23 02:10:14;;;;;;;6.40;3.33;;;2.00;99.90;1.40;97346.00;;;;5039401;28;20865;-74
2021/11/23 02:12:43;;;;;;;4.77;3.73;;;2.00;99.90;1.50;97342.00;;;;5045054;28;20957;-74
2021/11/23 02:15:12;;;;;;;5.10;3.90;;;2.00;99.90;1.40;97342.00;;;;5036414;28;20428;-74
2021/11/23 02:17:44;;;;;;;4.83;4.00;;;2.00;99.90;1.40;97344.00;;;;5038343;28;20434;-74
2021/11/23 02:20:18;;;;;;;8.53;4.87;;;2.00;99.90;1.40;97347.00;;;;5041188;28;20511;-76
2021/11/23 02:22:47;;;;;;;4.10;3.70;;;1.90;99.90;1.40;97348.00;;;;5045785;28;20452;-76
2021/11/23 02:25:18;;;;;;;4.80;3.37;;;1.90;99.90;1.30;97346.00;;;;5045420;28;20463;-76
2021/11/23 02:27:49;;;;;;;6.47;3.27;;;2.00;99.90;1.30;97357.00;;;;5040823;28;20481;-75
2021/11/23 02:30:18;;;;;;;2.83;2.30;;;1.90;99.90;1.40;97354.00;;;;5043485;28;20423;-76
2021/11/23 02:32:52;;;;;;;3.40;3.00;;;1.90;99.90;1.30;97358.00;;;;5038954;28;20448;-77
2021/11/23 02:35:26;;;;;;;3.67;3.30;;;1.90;99.90;1.30;97365.00;;;;5037169;28;20481;-76
2021/11/23 02:38:13;;;;;;;3.63;2.67;;;1.80;99.90;1.30;97362.00;;;;5041606;28;20859;-76
2021/11/23 02:40:42;;;;;;;4.97;3.00;;;1.80;99.90;1.20;97369.00;;;;5038952;28;20909;-76
2021/11/23 02:43:10;;;;;;;8.50;3.47;;;1.80;99.90;1.10;97372.00;;;;5033528;28;20432;-77
2021/11/23 02:45:39;;;;;;;4.20;2.70;;;1.80;99.90;1.00;97366.00;;;;5035245;28;21110;-76
2021/11/23 02:48:27;;;;;;;3.83;2.83;;;1.70;99.90;0.90;97367.00;;;;5043490;28;20497;-76
2021/11/23 02:51:01;;;;;;;4.00;3.27;;;1.70;99.90;0.90;97363.00;;;;5037162;28;20955;-76
2021/11/23 02:53:30;;;;;;;3.50;2.57;;;1.60;99.90;0.80;97367.00;;;;5036330;28;20434;-77
2021/11/23 02:56:00;;;;;;;6.30;5.40;;;1.60;99.90;0.80;97356.00;;;;5032126;28;20828;-75
2021/11/23 02:58:30;;;;;;;4.07;2.40;;;1.60;99.90;0.70;97357.00;;;;5029297;28;20781;-75
2021/11/23 03:01:01;;;;;;;3.50;1.80;;;1.60;99.90;0.50;97368.00;;;;5040755;28;20922;-76
2021/11/23 03:03:30;;;;;;;2.63;1.80;;;1.50;99.90;0.60;97373.00;;;;5047652;28;20438;-76
2021/11/23 03:06:01;;;;;;;5.23;2.47;;;1.40;99.90;0.50;97370.00;;;;5048123;28;20439;-75
2021/11/23 03:08:30;;;;;;;3.50;2.17;;;1.40;99.90;0.70;97372.00;;;;5040651;28;20438;-76
2021/11/23 03:10:59;;;;;;;2.87;2.17;;;1.20;99.90;0.80;97384.00;;;;5044627;28;20434;-76
2021/11/23 03:13:27;;;;;;;7.20;1.37;;;1.30;99.90;0.80;97371.00;;;;5037083;28;20927;-76
2021/11/23 03:15:56;;;;;;;4.30;2.07;;;1.40;99.90;0.90;97380.00;;;;5039393;28;20435;-76
2021/11/23 03:18:25;;;;;;;3.27;2.07;;;1.40;99.90;0.90;97389.00;;;;5040374;28;21024;-76
2021/11/23 03:20:54;;;;;;;2.60;2.37;;;1.40;99.90;0.90;97390.00;;;;5042192;28;20483;-76
2021/11/23 03:23:25;;;;;;;2.43;2.23;;;1.50;99.90;0.90;97393.00;;;;5033030;28;21035;-75
2021/11/23 03:25:54;;;;;;;4.90;2.67;;;1.50;99.90;0.90;97396.00;;;;5041593;28;20442;-75
2021/11/23 03:28:23;;;;;;;7.40;2.53;;;1.50;99.90;0.80;97388.00;;;;5043890;28;20432;-76
2021/11/23 03:30:52;;;;;;;2.40;1.87;;;1.50;99.90;0.70;97388.00;;;;5048154;28;20934;-76
2021/11/23 03:33:21;;;;;;;1.90;1.70;;;1.50;99.90;0.90;97398.00;;;;5040773;28;20431;-76
2021/11/23 03:35:50;;;;;;;2.20;1.87;;;1.40;99.90;1.00;97397.00;;;;5044121;28;20591;-77
2021/11/23 03:38:18;;;;;;;1.83;1.67;;;1.50;99.90;1.10;97398.00;;;;5045795;28;20930;-75
2021/11/23 03:40:48;;;;;;;1.90;1.20;;;1.50;99.90;1.20;97403.00;;;;5041714;28;20475;-75
2021/11/23 03:43:17;;;;;;;2.33;1.50;;;1.60;99.90;1.20;97403.00;;;;5038290;28;20806;-76
2021/11/23 03:45:46;;;;;;;2.10;1.70;;;1.60;99.90;1.20;97398.00;;;;5037299;28;20931;-77
2021/11/23 03:48:15;;;;;;;1.40;1.30;;;1.60;99.90;1.20;97395.00;;;;5045226;28;20938;-76
2021/11/23 03:50:44;;;;;;;2.10;1.93;;;1.70;99.90;1.20;97399.00;;;;5042284;28;20962;-76
2021/11/23 03:53:13;;;;;;;2.93;1.60;;;1.70;99.90;1.10;97397.00;;;;5043542;28;20950;-76
2021/11/23 03:55:48;;;;;;;1.77;1.67;;;1.60;99.90;1.10;97397.00;;;;5039984;28;20435;-75
2021/11/23 03:58:18;;;;;;;1.50;1.30;;;1.70;99.90;1.00;97409.00;;;;5035221;28;20439;-75
2021/11/23 04:00:47;;;;;;;2.20;1.87;;;1.60;99.90;1.10;97414.00;;;;5043372;28;20490;-75
2021/11/23 04:03:16;;;;;;;3.67;1.83;;;1.60;99.90;1.10;97415.00;;;;5044995;28;20449;-76
2021/11/23 04:05:45;;;;;;;2.80;2.10;;;1.60;99.90;1.20;97418.00;;;;5046510;28;20934;-78
2021/11/23 04:08:13;;;;;;;3.73;3.00;;;1.60;99.90;1.30;97431.00;;;;5036659;28;20431;-75
2021/11/23 04:10:42;;;;;;;7.00;3.17;;;1.60;99.90;1.30;97422.00;;;;5040093;28;20780;-75
2021/11/23 04:13:11;;;;;;;2.70;1.63;;;1.60;99.90;1.10;97420.00;;;;5045773;28;20807;-75
2021/11/23 04:15:41;;;;;;;5.20;2.90;;;1.70;99.90;0.90;97426.00;;;;5044236;28;20470;-75
2021/11/23 04:18:10;;;;;;;8.37;2.47;;;1.60;99.90;0.90;97425.00;;;;5030225;28;20431;-77
2021/11/23 04:20:39;;;;;;;4.13;2.70;;;1.50;99.90;1.00;97429.00;;;;5043927;28;20984;-75
2021/11/23 04:23:08;;;;;;;7.43;2.90;;;1.50;99.90;1.00;97430.00;;;;5046877;28;20530;-74
2021/11/23 04:25:37;;;;;;;4.35;2.92;;;1.50;99.90;0.90;97437.00;;;;5038995;28;20402;-75
2021/11/23 04:28:24;;;;;;;3.90;2.90;;;1.40;99.90;0.90;97440.00;;;;5041374;28;20331;-75
2021/11/23 04:30:55;;;;;;;5.30;2.87;;;1.40;99.90;0.80;97437.00;;;;5047009;28;20451;-74
2021/11/23 04:33:23;;;;;;;5.87;2.67;;;1.40;99.90;0.90;97439.00;;;;5037552;28;20939;-75
2021/11/23 04:35:52;;;;;;;3.87;2.87;;;1.40;99.90;0.90;97432.00;;;;5040359;28;20953;-74
2021/11/23 04:38:21;;;;;;;3.13;2.33;;;1.30;99.90;0.80;97444.00;;;;5043361;28;20668;-74
2021/11/23 04:40:50;;;;;;;3.03;2.40;;;1.40;99.90;0.70;97447.00;;;;5046595;28;20438;-77
2021/11/23 04:43:19;;;;;;;3.07;1.77;;;1.30;99.90;0.80;97447.00;;;;5038980;28;20428;-74
2021/11/23 04:45:47;;;;;;;2.67;1.40;;;1.30;99.90;0.90;97441.00;;;;5035386;28;20437;-76
2021/11/23 04:48:18;;;;;;;1.37;1.17;;;1.30;99.90;0.90;97442.00;;;;5044228;28;20431;-75
2021/11/23 04:50:46;;;;;;;2.37;1.83;;;1.30;99.90;0.80;97452.00;;;;5040920;28;20436;-75
2021/11/23 04:53:15;;;;;;;2.23;1.50;;;1.30;99.90;0.70;97450.00;;;;5036776;28;20926;-75
2021/11/23 04:55:44;;;;;;;1.73;1.50;;;1.30;99.90;0.80;97447.00;;;;5033176;28;20428;-75
2021/11/23 04:58:13;;;;;;;4.27;1.70;;;1.30;99.90;0.90;97451.00;;;;5033378;28;20435;-74
2021/11/23 05:00:42;;;;;;;1.53;1.30;;;1.30;99.90;0.90;97456.00;;;;5039008;28;20509;-73
2021/11/23 05:03:11;;;;;;;2.37;1.77;;;1.30;99.90;0.70;97446.00;;;;5040431;28;20471;-73
2021/11/23 05:05:41;;;;;;;2.07;1.63;;;1.30;99.90;0.80;97460.00;;;;5042315;28;20966;-73
2021/11/23 05:08:10;;;;;;;3.47;2.70;;;1.30;99.90;0.90;97460.00;;;;5035534;28;20456;-73
2021/11/23 05:10:39;;;;;;;3.50;2.30;;;1.30;99.90;0.90;97456.00;;;;5037229;28;20436;-73
2021/11/23 05:13:26;;;;;;;4.83;2.40;;;1.20;99.90;1.00;97448.00;;;;5032833;28;20466;-73
2021/11/23 05:15:56;;;;;;;3.03;2.13;;;1.30;99.90;1.10;97448.00;;;;5040867;28;20443;-73
2021/11/23 05:18:24;;;;;;;1.80;1.70;;;1.40;99.90;1.10;97459.00;;;;5037437;28;20428;-72
2021/11/23 05:20:54;;;;;;;3.73;1.47;;;1.40;99.90;1.10;97457.00;;;;5042126;28;20717;-73
2021/11/23 05:23:23;;;;;;;2.77;1.67;;;1.40;99.90;1.20;97474.00;;;;5038626;28;20487;-74
2021/11/23 05:25:54;;;;;;;1.93;1.73;;;1.50;99.90;1.10;97471.00;;;;5040440;28;20799;-73
2021/11/23 05:28:23;;;;;;;3.13;2.33;;;1.50;99.90;0.80;97472.00;;;;5041788;28;20785;-74
2021/11/23 05:30:52;;;;;;;6.47;4.40;;;1.40;99.90;0.80;97474.00;;;;5047455;28;21020;-74
2021/11/23 05:33:22;;;;;;;5.67;3.97;;;1.40;99.90;0.90;97476.00;;;;5046745;28;20723;-74
2021/11/23 05:35:51;;;;;;;6.00;4.90;;;1.40;99.90;0.90;97487.00;;;;5039729;28;20434;-76
2021/11/23 05:38:22;;;;;;;1.93;1.50;;;1.40;99.90;0.50;97476.00;;;;5046591;28;20430;-73
2021/11/23 05:40:50;;;;;;;1.57;1.47;;;1.40;99.90;0.50;97489.00;;;;5039182;28;20437;-75
2021/11/23 05:43:19;;;;;;;1.63;1.30;;;1.30;99.90;0.60;97486.00;;;;5043988;28;20487;-73
2021/11/23 05:45:48;;;;;;;2.57;1.30;;;1.30;99.90;0.60;97488.00;;;;5038549;28;20799;-75
2021/11/23 05:48:17;;;;;;;1.50;1.23;;;1.30;99.90;0.30;97493.00;;;;5038081;28;20862;-75
2021/11/23 05:50:46;;;;;;;1.30;1.20;;;1.20;99.90;0.60;97490.00;;;;5038459;28;20538;-75
2021/11/23 05:53:18;;;;;;;2.90;1.60;;;1.20;99.90;0.70;97502.00;;;;5038682;28;20509;-75
2021/11/23 05:55:48;;;;;;;2.30;1.60;;;1.20;99.90;0.90;97503.00;;;;5034344;28;20446;-75
2021/11/23 05:58:16;;;;;;;1.47;1.37;;;1.30;99.90;0.90;97503.00;;;;5035134;28;20497;-74
2021/11/23 06:00:45;;;;;;;1.67;1.57;;;1.30;99.90;0.90;97512.00;;;;5041544;28;20943;-74
2021/11/23 06:03:14;;;;;;;1.80;1.67;;;1.30;99.90;0.80;97513.00;;;;5044919;28;20475;-74
2021/11/23 06:05:43;;;;;;;2.27;1.73;;;1.30;99.90;0.80;97509.00;;;;5035953;28;20428;-74
2021/11/23 06:08:12;;;;;;;1.83;1.50;;;1.30;99.90;0.70;97505.00;;;;5040620;28;20457;-75
2021/11/23 06:10:41;;;;;;;1.80;1.63;;;1.30;99.90;0.60;97515.00;;;;5036919;28;20527;-75
2021/11/23 06:13:12;;;;;;;2.00;1.73;;;1.20;99.90;0.50;97520.00;;;;5038006;28;20440;-75
2021/11/23 06:15:44;;;;;;;1.70;1.60;;;1.20;99.90;0.40;97529.00;;;;5039542;28;20446;-75
2021/11/23 06:18:14;;;;;;;1.70;1.60;;;1.10;99.90;0.30;97531.00;;;;5040895;28;20420;-74
2021/11/23 06:20:49;;;;;;;1.90;1.70;;;1.00;99.90;0.20;97536.00;;;;5033859;28;20431;-75
2021/11/23 06:23:20;;;;;;;2.30;2.10;;;1.00;99.90;0.40;97540.00;;;;5036864;28;21032;-74
2021/11/23 06:25:52;;;;;;;1.87;1.70;;;1.00;99.90;0.30;97542.00;;;;5040546;28;20435;-75
2021/11/23 06:28:24;;;;;;;2.47;1.77;;;1.00;99.90;0.30;97545.00;;;;5043472;28;20835;-75
2021/11/23 06:30:53;;;;;;;1.90;1.53;;;1.00;99.90;0.40;97552.00;;;;5025682;28;20738;-75
2021/11/23 06:33:24;;;;;;;2.37;1.93;;;1.00;99.90;0.40;97552.00;;;;5029220;28;20439;-73
2021/11/23 06:35:53;;;;;;;1.87;1.73;;;0.90;99.90;0.40;97575.00;;;;5044820;28;20440;-74
2021/11/23 06:38:22;;;;;;;2.70;2.20;;;1.00;99.90;0.60;97565.00;;;;5044381;28;20431;-75
2021/11/23 06:40:51;;;;;;;1.83;1.50;;;1.00;99.90;0.60;97565.00;;;;5039256;28;20939;-75
2021/11/23 06:43:21;;;;;;;4.37;1.93;;;1.00;99.90;0.70;97570.00;;;;5033039;28;20464;-74
2021/11/23 06:45:50;;;;;;;2.57;2.23;;;1.10;99.90;0.60;97580.00;;;;5033662;28;20548;-75
2021/11/23 06:48:21;;;;;;;2.47;2.27;;;1.20;99.90;0.70;97588.00;;;;5043795;28;20470;-77
2021/11/23 06:50:50;;;;;;;3.20;2.30;;;1.20;99.90;0.60;97584.00;;;;5041840;28;20450;-75
2021/11/23 06:53:19;;;;;;;3.10;2.20;;;1.20;99.90;0.70;97596.00;;;;5038379;28;20489;-75
2021/11/23 06:55:47;;;;;;;3.50;2.47;;;1.20;99.90;0.90;97600.00;;;;5032102;28;20519;-76
2021/11/23 06:58:17;;;;;;;3.37;2.10;;;1.30;99.90;1.10;97604.00;;;;5035916;28;20432;-75
2021/11/23 07:00:47;;;;;;;5.10;2.00;;;1.30;99.90;1.20;97613.00;;;;5038922;28;20467;-74
2021/11/23 07:03:16;;;;;;;2.13;1.93;;;1.40;99.90;1.00;97611.00;;;;5032166;28;20619;-74
2021/11/23 07:05:45;;;;;;;2.17;1.90;;;1.40;99.90;0.80;97611.00;;;;5034609;28;20813;-74
2021/11/23 07:08:24;;;;;;;2.40;2.20;;;1.40;99.90;0.70;97607.00;;;;5035054;28;20798;-73
2021/11/23 07:10:54;;;;;;;3.07;2.30;;;1.30;99.90;0.70;97606.00;;;;5035955;28;20534;-74
2021/11/23 07:13:22;;;;;;;2.63;2.03;;;1.40;99.90;0.30;97602.00;;;;5035712;28;20528;-76
2021/11/23 07:15:53;;;;;;;2.20;1.80;;;1.30;99.90;0.40;97603.00;;;;5034537;28;20471;-77
2021/11/23 07:18:22;;;;;;;3.00;2.03;;;1.20;99.90;0.70;97612.00;;;;5038669;28;20598;-74
2021/11/23 07:20:50;;;;;;;4.13;1.97;;;1.20;99.90;0.90;97617.00;;;;5039153;28;20521;-75
2021/11/23 07:23:19;;;;;;;3.73;1.80;;;1.20;99.90;0.90;97618.00;;;;5034982;28;20480;-75
2021/11/23 07:25:47;;;;;;;7.67;2.60;;;1.30;99.90;0.80;97615.00;;;;5032253;28;20457;-75
2021/11/23 07:28:17;;;;;;;4.17;2.37;;;1.30;99.90;0.80;97622.00;;;;5043492;28;20817;-75
2021/11/23 07:30:46;;;;;;;2.77;2.27;;;1.30;99.90;1.00;97609.00;;;;5038156;28;20443;-73
2021/11/23 07:33:16;;;;;;;4.53;2.53;;;1.30;99.90;1.10;97616.00;;;;5041074;28;20434;-74
2021/11/23 07:35:45;;;;;;;3.10;2.73;;;1.40;99.90;1.10;97622.00;;;;5035396;28;20435;-74
2021/11/23 07:38:13;;;;;;;4.17;2.83;;;1.40;99.90;1.10;97619.00;;;;5037194;28;20432;-74
2021/11/23 07:40:42;;;;;;;4.70;2.37;;;1.50;99.90;1.10;97614.00;;;;5043886;28;20530;-75
2021/11/23 07:43:11;;;;;;;5.43;1.83;;;1.50;99.90;1.10;97614.00;;;;5047981;28;20536;-75
2021/11/23 07:45:41;;;;;;;6.27;2.77;;;1.50;99.90;1.20;97619.00;;;;5040008;28;20453;-74
2021/11/23 07:48:11;;;;;;;2.67;2.33;;;1.50;99.90;1.50;97628.00;;;;5043370;28;20428;-75
2021/11/23 07:50:42;;;;;;;5.23;2.77;;;1.60;99.90;1.60;97612.00;;;;5035047;28;20478;-75
2021/11/23 07:53:10;;;;;;;3.60;2.80;;;1.70;99.90;1.60;97617.00;;;;5038107;28;20433;-74
2021/11/23 07:55:39;;;;;;;3.90;3.03;;;1.80;99.90;1.60;97622.00;;;;5040877;28;21181;-75
2021/11/23 07:58:08;;;;;;;3.60;3.10;;;1.90;99.90;1.50;97622.00;;;;5039925;28;20502;-75
2021/11/23 08:00:40;;;;;;;3.23;2.63;;;1.90;99.90;1.40;97622.00;;;;5039502;28;20817;-77
2021/11/23 08:03:10;;;;;;;4.33;3.23;;;1.90;99.90;1.40;97617.00;;;;5047684;28;20471;-75
2021/11/23 08:05:41;;;;;;;7.27;3.07;;;1.90;99.90;1.50;97619.00;;;;5038288;28;20435;-75
2021/11/23 08:08:13;;;;;;;5.70;3.40;;;1.90;99.90;1.40;97628.00;;;;5039877;28;20430;-76
2021/11/23 08:10:43;;;;;;;4.60;2.93;;;2.00;99.90;1.50;97622.00;;;;5047768;28;20586;-76
2021/11/23 08:13:12;;;;;;;4.47;2.67;;;2.00;99.90;1.60;97620.00;;;;5040441;28;20446;-75
2021/11/23 08:15:40;;;;;;;4.37;2.83;;;2.00;99.90;1.80;97626.00;;;;5037560;28;20488;-74
2021/11/23 08:18:11;;;;;;;3.80;2.90;;;2.10;99.90;2.00;97618.00;;;;5039699;28;20463;-74
2021/11/23 08:20:43;;;;;;;4.57;2.53;;;2.10;99.90;2.30;97621.00;;;;5039070;28;20534;-74
2021/11/23 08:23:12;;;;;;;3.93;2.23;;;2.30;99.90;2.50;97633.00;;;;5035008;28;20538;-74
2021/11/23 08:25:41;;;;;;;3.97;2.70;;;2.40;99.90;2.70;97629.00;;;;5038039;28;20792;-74
2021/11/23 08:28:10;;;;;;;3.50;2.57;;;2.50;99.90;2.80;97630.00;;;;5043216;28;20420;-74
2021/11/23 08:30:39;;;;;;;5.33;3.37;;;2.70;99.90;3.00;97629.00;;;;5045437;28;20439;-73
2021/11/23 08:33:10;;;;;;;3.77;3.23;;;2.80;99.90;3.00;97631.00;;;;5035184;28;20432;-72
2021/11/23 08:35:39;;;;;;;4.47;3.73;;;3.00;99.90;2.90;97630.00;;;;5043100;28;21005;-74
2021/11/23 08:38:09;;;;;;;8.70;3.93;;;3.10;99.90;3.20;97620.00;;;;5046699;28;20501;-75
2021/11/23 08:40:39;;;;;;;4.20;3.07;;;3.20;99.90;3.30;97634.00;;;;5028790;28;20498;-75
2021/11/23 08:43:09;;;;;;;5.70;3.87;;;3.30;99.90;3.40;97625.00;;;;5028358;28;20194;-75
2021/11/23 08:45:38;;;;;;;7.90;5.23;;;3.40;99.90;3.60;97634.00;;;;5042363;28;20445;-75
2021/11/23 08:48:07;;;;;;;4.30;3.57;;;3.60;99.90;3.80;97640.00;;;;5037404;28;20502;-75
2021/11/23 08:50:36;;;;;;;7.30;4.13;;;3.70;99.90;3.90;97635.00;;;;5047739;28;20792;-74
2021/11/23 08:53:07;;;;;;;8.37;3.77;;;3.80;99.90;4.10;97645.00;;;;5045802;28;20486;-74
2021/11/23 08:55:38;;;;;;;9.73;5.30;;;3.90;99.90;4.10;97646.00;;;;5041887;28;20764;-74
2021/11/23 08:58:08;;;;;;;8.37;4.53;;;4.00;99.90;4.00;97647.00;;;;5040198;28;20215;-74
2021/11/23 09:00:38;;;;;;;7.67;5.03;;;4.10;99.90;4.10;97654.00;;;;5045590;28;20205;-74
2021/11/23 09:03:07;;;;;;;10.00;4.20;;;4.20;99.90;4.00;97656.00;;;;5044218;28;20205;-75
2021/11/23 09:05:37;;;;;;;5.23;3.90;;;4.30;99.90;4.10;97651.00;;;;5045182;28;20201;-74
2021/11/23 09:08:08;;;;;;;9.37;4.27;;;4.30;99.90;4.30;97650.00;;;;5039932;28;20220;-75
2021/11/23 09:10:40;;;;;;;14.63;5.00;;;4.30;99.90;4.40;97656.00;;;;5036000;28;20697;-75
2021/11/23 09:13:10;;;;;;;7.67;5.50;;;4.40;99.90;4.60;97658.00;;;;5040087;28;20225;-74
2021/11/23 09:15:39;;;;;;;6.10;4.53;;;4.50;99.90;4.80;97653.00;;;;5044223;28;20595;-74
2021/11/23 09:18:09;;;;;;;7.90;4.90;;;4.60;99.90;4.90;97657.00;;;;5038370;28;20204;-75
2021/11/23 09:20:39;;;;;;;6.30;5.03;;;4.70;99.90;5.10;97662.00;;;;5047248;28;20644;-76
2021/11/23 09:23:15;;;;;;;8.47;5.00;;;4.80;99.90;5.30;97667.00;;;;5041084;28;20193;-76
2021/11/23 09:26:03;;;;;;;7.20;5.20;;;5.00;99.90;5.40;97660.00;;;;5034457;28;20220;-76
2021/11/23 09:28:32;;;;;;;8.07;5.53;;;5.10;99.90;5.60;97664.00;;;;5037585;28;20200;-76
2021/11/23 09:31:01;;;;;;;10.27;5.23;;;5.30;99.90;5.70;97658.00;;;;5039405;28;20220;-73
2021/11/23 09:33:29;;;;;;;12.53;5.23;;;5.40;99.90;5.70;97667.00;;;;5034898;28;20199;-73
2021/11/23 09:35:58;;;;;;;7.43;4.73;;;5.50;99.90;5.70;97664.00;;;;5045901;28;20728;-73
2021/11/23 09:38:27;;;;;;;10.10;5.00;;;5.60;99.90;5.70;97654.00;;;;5037953;28;20201;-73
2021/11/23 09:40:56;;;;;;;10.13;5.03;;;5.60;99.90;5.80;97660.00;;;;5033446;28;20284;-74
2021/11/23 09:43:26;;;;;;;12.27;6.80;;;5.70;99.90;5.70;97665.00;;;;5037722;28;20199;-73
2021/11/23 09:45:56;;;;;;;10.60;6.23;;;5.70;99.90;5.70;97664.00;;;;5034759;28;20223;-73
2021/11/23 09:48:25;;;;;;;9.77;6.73;;;5.70;99.90;5.90;97659.00;;;;5038557;28;20226;-73
2021/11/23 09:50:54;;;;;;;12.33;7.07;;;5.80;99.90;5.90;97666.00;;;;5031288;28;21295;-73
2021/11/23 09:53:24;;;;;;;8.53;5.90;;;5.80;99.90;5.80;97662.00;;;;5037939;28;20273;-71
2021/11/23 09:55:54;;;;;;;16.53;7.37;;;5.90;99.90;6.00;97656.00;;;;5037201;28;20270;-71
2021/11/23 09:58:23;;;;;;;9.90;6.90;;;5.90;99.90;6.10;97663.00;;;;5036243;28;20751;-71
2021/11/23 10:00:53;;;;;;;11.63;6.83;;;6.00;99.90;6.10;97662.00;;;;5030063;28;20251;-71
2021/11/23 10:03:29;;;;;;;10.73;7.07;;;6.00;99.90;6.00;97666.00;;;;5039331;28;20305;-71
2021/11/23 10:06:08;;;;;;;9.30;6.97;;;6.10;99.90;5.90;97652.00;;;;5042374;28;20354;-71
2021/11/23 10:08:40;;;;;;;10.03;7.63;;;6.10;99.90;6.00;97661.00;;;;5045534;28;20192;-71
2021/11/23 10:11:09;;;;;;;13.47;7.67;;;6.20;99.90;6.20;97668.00;;;;5038577;28;20716;-71
2021/11/23 10:13:46;;;;;;;11.07;8.03;;;6.20;99.90;6.10;97664.00;;;;5046198;28;20207;-71
2021/11/23 10:16:18;;;;;;;15.93;8.57;;;6.20;99.90;6.00;97658.00;;;;5045311;28;20207;-71
2021/11/23 10:19:12;;;;;;;14.03;7.33;;;6.20;99.90;6.10;97654.00;;;;5037505;28;20683;-71
2021/11/23 10:21:59;;;;;;;14.00;8.70;;;6.20;99.90;6.10;97628.00;;;;5041019;28;20306;-71
2021/11/23 10:24:36;;;;;;;12.43;8.17;;;6.20;99.90;7.30;97641.00;;;;5043916;28;20711;-71
2021/11/23 10:27:24;;;;;;;9.33;7.50;;;6.70;99.90;7.70;97642.00;;;;5033796;28;20563;-72
2021/11/23 10:29:53;;;;;;;8.80;6.73;;;7.40;99.90;7.50;97625.00;;;;5039039;28;20200;-72
2021/11/23 10:32:23;;;;;;;11.90;7.30;;;7.90;99.90;8.20;97624.00;;;;5039602;28;20399;-72
2021/11/23 10:34:52;;;;;;;9.97;6.60;;;8.30;99.90;9.50;97634.00;;;;5031913;28;20486;-75
2021/11/23 10:37:33;;;;;;;10.80;6.93;;;8.70;99.90;10.00;97634.00;;;;5045020;28;20608;-74
2021/11/23 10:40:14;;;;;;;8.37;6.47;;;9.50;99.90;10.10;97629.00;;;;5037172;28;20258;-74
2021/11/23 10:42:44;;;;;;;10.13;8.73;;;10.20;99.90;10.70;97634.00;;;;5030393;28;20221;-74
2021/11/23 10:45:13;;;;;;;10.13;6.13;;;10.60;99.90;10.90;97639.00;;;;5033065;28;20252;-74
2021/11/23 10:47:47;;;;;;;7.83;6.20;;;10.90;99.90;10.90;97625.00;;;;5045058;28;20214;-74
2021/11/23 10:50:19;;;;;;;10.73;6.60;;;11.20;99.90;11.00;97626.00;;;;5043720;28;20223;-75
2021/11/23 10:52:51;;;;;;;8.67;6.43;;;11.30;99.90;10.90;97630.00;;;;5045024;28;20256;-75
2021/11/23 10:55:31;;;;;;;7.30;6.20;;;11.40;99.90;11.30;97623.00;;;;5032523;28;20575;-75
2021/11/23 10:58:03;;;;;;;10.60;6.77;;;11.60;99.90;10.30;97658.00;;;;5033965;28;20325;-75
2021/11/23 11:00:38;;;;;;;11.13;7.70;;;11.60;99.90;10.20;97617.00;;;;5028019;28;20199;-75
2021/11/23 11:03:10;;;;;;;9.57;6.63;;;11.40;99.90;10.60;97621.00;;;;5038670;28;20208;-74
2021/11/23 11:05:41;;;;;;;8.23;6.20;;;11.30;99.90;11.00;97626.00;;;;5041055;28;20418;-75
2021/11/23 11:08:12;;;;;;;9.53;6.13;;;11.30;99.90;11.10;97636.00;;;;5039941;28;20197;-75
2021/11/23 11:10:41;;;;;;;12.00;7.00;;;11.50;99.90;10.60;97637.00;;;;5036341;28;20192;-75
2021/11/23 11:13:13;;;;;;;10.87;6.97;;;11.50;99.90;10.40;97617.00;;;;5042206;28;20188;-75
2021/11/23 11:16:00;;;;;;;10.70;7.27;;;11.50;99.90;11.30;97622.00;;;;5044678;28;20262;-76
2021/11/23 11:18:30;;;;;;;7.13;6.43;;;11.50;99.90;11.20;97634.00;;;;5042689;28;20197;-75
2021/11/23 11:21:02;;;;;;;7.67;6.23;;;11.60;99.90;10.70;97621.00;;;;5039669;28;20229;-73
2021/11/23 11:23:37;;;;;;;9.63;6.57;;;11.50;99.90;10.80;97646.00;;;;5047447;28;20192;-75